createdAt,value
2023-05-31T00:57:48.069Z,86.28
2023-05-31T01:00:18.279Z,80.73
2023-05-31T01:03:28.202Z,80.10
2023-05-31T01:13:42.105Z,75.51
2023-05-31T01:16:34.169Z,76.40
2023-05-31T01:22:51.677Z,77.00
2023-05-31T01:32:14.953Z,76.65
2023-05-31T01:34:49.585Z,75.16
2023-05-31T01:40:14.354Z,75.97
2023-05-31T01:43:12.411Z,77.38
2023-05-31T01:46:52.250Z,76.26
2023-05-31T01:52:19.807Z,76.96
2023-05-31T01:55:06.605Z,79.05
2023-05-31T01:57:46.057Z,76.48
2023-05-31T02:00:19.100Z,74.94
2023-05-31T02:02:56.647Z,76.77
2023-05-31T02:05:49.497Z,75.38
2023-05-31T02:08:21.757Z,73.99
2023-05-31T02:10:51.810Z,74.21
2023-05-31T02:13:21.490Z,71.75
2023-05-31T02:15:50.404Z,71.64
2023-05-31T02:18:18.931Z,69.20
2023-05-31T02:20:50.713Z,70.55
2023-05-31T02:23:21.979Z,72.80
2023-05-31T02:25:52.687Z,71.22
2023-05-31T02:28:27.247Z,71.84
2023-05-31T02:30:57.092Z,69.57
2023-05-31T02:33:32.192Z,70.11
2023-05-31T02:36:03.947Z,67.61
2023-05-31T02:38:33.664Z,71.64
2023-05-31T02:41:04.558Z,71.34
2023-05-31T02:43:32.624Z,70.24
2023-05-31T02:46:03.192Z,68.10
2023-05-31T02:48:42.313Z,67.50
2023-05-31T02:51:10.613Z,67.67
2023-05-31T02:53:40.207Z,64.99
2023-05-31T02:56:10.445Z,65.70
2023-05-31T02:58:59.366Z,68.57
2023-05-31T03:01:27.739Z,68.61
2023-05-31T03:04:00.564Z,68.05
2023-05-31T03:06:29.763Z,67.31
2023-05-31T03:09:07.527Z,68.93
2023-05-31T03:12:02.439Z,68.73
2023-05-31T03:14:31.373Z,67.29
2023-05-31T03:16:59.999Z,67.40
2023-05-31T03:19:34.086Z,67.26
2023-05-31T03:22:24.437Z,69.19
2023-05-31T03:25:02.688Z,67.91
2023-05-31T03:27:35.481Z,66.99
2023-05-31T03:30:04.476Z,69.16
2023-05-31T03:32:37.968Z,67.26
2023-05-31T03:35:11.098Z,68.86
2023-05-31T03:40:56.915Z,70.57
2023-05-31T03:43:40.429Z,71.11
2023-05-31T03:46:21.178Z,70.90
2023-05-31T03:48:49.779Z,70.66
2023-05-31T03:51:22.237Z,70.37
2023-05-31T03:54:13.138Z,70.29
2023-05-31T03:56:56.065Z,69.33
2023-05-31T03:59:28.220Z,68.66
2023-05-31T04:01:57.685Z,70.56
2023-05-31T04:04:28.725Z,69.32
2023-05-31T04:06:56.867Z,69.85
2023-05-31T04:09:27.221Z,69.18
2023-05-31T04:12:03.360Z,67.61
2023-05-31T04:14:33.109Z,68.89
2023-05-31T04:17:04.735Z,70.37
2023-05-31T04:19:36.239Z,67.27
2023-05-31T04:22:05.859Z,66.54
2023-05-31T04:24:34.070Z,65.49
2023-05-31T04:27:04.357Z,66.54
2023-05-31T04:29:35.339Z,67.11
2023-05-31T04:32:25.872Z,66.03
2023-05-31T04:35:22.283Z,65.62
2023-05-31T04:37:54.005Z,66.50
2023-05-31T04:40:23.456Z,67.70
2023-05-31T04:42:54.845Z,64.21
2023-05-31T04:45:34.744Z,63.50
2023-05-31T04:48:08.241Z,61.13
2023-05-31T04:50:41.726Z,64.03
2023-05-31T04:53:10.501Z,62.82
2023-05-31T04:55:44.527Z,63.85
2023-05-31T04:58:20.741Z,65.07
2023-05-31T05:00:50.671Z,62.71
2023-05-31T05:03:25.531Z,62.12
2023-05-31T05:05:55.200Z,62.73
2023-05-31T05:08:24.471Z,63.64
2023-05-31T05:10:52.545Z,63.06
2023-05-31T05:16:07.437Z,62.89
2023-05-31T05:18:41.960Z,64.34
2023-05-31T05:21:10.057Z,61.88
2023-05-31T05:23:38.704Z,63.37
2023-05-31T05:26:06.737Z,57.95
2023-05-31T05:28:38.039Z,61.88
2023-05-31T05:31:09.280Z,61.22
2023-05-31T05:33:38.051Z,59.45
2023-05-31T05:36:06.978Z,61.33
2023-05-31T05:38:35.887Z,62.45
2023-05-31T05:41:04.076Z,60.90
2023-05-31T05:43:32.646Z,61.56
2023-05-31T05:46:02.030Z,60.34
2023-05-31T05:48:30.120Z,60.14
2023-05-31T05:50:58.552Z,61.01
2023-05-31T05:53:28.558Z,60.42
2023-05-31T05:55:56.688Z,61.99
2023-05-31T05:58:25.707Z,61.28
2023-05-31T06:00:58.215Z,60.55
2023-05-31T06:03:27.904Z,58.29
2023-05-31T06:06:03.216Z,56.50
2023-05-31T06:08:31.469Z,57.73
2023-05-31T06:10:59.456Z,58.80
2023-05-31T06:13:27.444Z,57.87
2023-05-31T06:16:08.067Z,53.65
2023-05-31T06:18:36.561Z,55.60
2023-05-31T06:21:15.679Z,51.69
2023-05-31T06:23:44.680Z,52.60
2023-05-31T06:26:12.813Z,54.24
2023-05-31T06:28:45.264Z,53.99
2023-05-31T06:31:21.304Z,55.08
2023-05-31T06:33:55.433Z,51.30
2023-05-31T06:39:40.021Z,51.43
2023-05-31T06:42:17.076Z,53.71
2023-05-31T06:44:57.056Z,54.42
2023-05-31T06:47:44.390Z,51.59
2023-05-31T06:50:20.781Z,49.56
2023-05-31T06:52:59.566Z,49.57
2023-05-31T06:55:28.038Z,51.09
2023-05-31T06:58:01.955Z,51.28
2023-05-31T07:03:28.364Z,43.95
2023-05-31T07:05:56.598Z,46.02
2023-05-31T07:11:24.257Z,44.93
2023-05-31T07:17:14.792Z,42.23
2023-05-31T07:20:54.077Z,40.03
2023-05-31T07:23:44.294Z,41.60
2023-05-31T07:29:19.652Z,39.48
2023-05-31T07:31:50.214Z,38.26
2023-05-31T07:34:29.306Z,32.56
2023-05-31T07:37:34.645Z,37.26
2023-05-31T07:40:10.466Z,35.60
2023-05-31T07:45:50.524Z,37.30
2023-05-31T07:51:36.661Z,36.19
2023-05-31T07:54:11.838Z,34.82
2023-05-31T07:56:42.751Z,36.08
2023-05-31T08:03:23.611Z,37.33
2023-05-31T08:11:59.265Z,36.19
2023-05-31T08:21:41.811Z,35.88
2023-05-31T08:24:21.450Z,35.16
2023-05-31T08:27:40.295Z,36.25
2023-05-31T08:34:00.553Z,37.30
2023-05-31T08:44:19.338Z,30.87
2023-05-31T08:54:04.229Z,31.30
2023-05-31T08:56:44.150Z,33.73
2023-05-31T08:59:49.478Z,33.74
2023-05-31T09:05:57.928Z,31.64
2023-05-31T09:08:41.144Z,31.09
2023-05-31T09:12:03.560Z,33.63
2023-05-31T09:15:06.509Z,36.26
2023-05-31T09:17:36.522Z,32.58
2023-05-31T09:23:35.162Z,36.46
2023-05-31T09:26:09.560Z,37.48
2023-05-31T09:32:16.623Z,32.04
2023-05-31T09:35:16.178Z,33.01
2023-05-31T09:48:25.444Z,31.13
2023-05-31T09:51:03.703Z,30.28
2023-05-31T09:53:51.827Z,29.35
2023-05-31T09:56:28.745Z,33.58
2023-05-31T09:58:57.905Z,31.30
2023-05-31T10:01:32.801Z,32.66
2023-05-31T10:04:07.683Z,31.54
2023-05-31T10:06:37.833Z,30.49
2023-05-31T10:09:13.885Z,32.49
2023-05-31T10:12:02.229Z,31.25
2023-05-31T10:14:41.277Z,30.57
2023-05-31T10:17:21.726Z,33.51
2023-05-31T10:23:29.486Z,34.47
2023-05-31T10:26:13.537Z,31.81
2023-05-31T10:29:17.016Z,30.52
2023-05-31T10:39:35.736Z,28.59
2023-05-31T10:42:43.501Z,34.08
2023-05-31T10:45:15.045Z,34.00
2023-05-31T10:47:55.277Z,31.26
2023-05-31T10:50:29.845Z,30.29
2023-05-31T10:53:17.834Z,31.30
2023-05-31T10:55:50.849Z,32.68
2023-05-31T10:58:37.221Z,30.78
2023-05-31T11:01:16.167Z,29.84
2023-05-31T11:03:54.105Z,29.62
2023-05-31T11:06:32.064Z,32.80
2023-05-31T11:09:36.546Z,29.67
2023-05-31T11:12:13.529Z,28.96
2023-05-31T11:15:11.464Z,31.75
2023-05-31T11:17:55.285Z,32.90
2023-05-31T11:20:27.037Z,32.07
2023-05-31T11:23:14.928Z,37.49
2023-05-31T11:25:43.055Z,37.51
2023-05-31T11:28:15.394Z,35.20
2023-05-31T11:31:12.588Z,34.19
2023-05-31T11:33:58.391Z,33.58
2023-05-31T11:36:38.161Z,33.52
2023-05-31T11:39:07.267Z,39.11
2023-05-31T11:44:53.257Z,36.99
2023-05-31T11:47:34.259Z,37.24
2023-05-31T11:50:08.664Z,36.30
2023-05-31T12:18:55.406Z,36.95
2023-05-31T12:24:52.331Z,35.43
2023-05-31T12:27:46.131Z,36.26
2023-05-31T12:30:23.302Z,37.76
2023-05-31T12:32:59.018Z,37.96
2023-05-31T12:35:28.046Z,37.61
2023-05-31T12:37:56.423Z,34.88
2023-05-31T12:40:24.575Z,35.49
2023-05-31T12:43:01.053Z,36.72
2023-05-31T12:45:29.582Z,35.69
2023-05-31T12:47:58.358Z,36.19
2023-05-31T12:50:29.646Z,36.03
2023-05-31T12:52:58.299Z,35.90
2023-05-31T12:55:27.892Z,35.78
2023-05-31T12:57:55.659Z,34.60
2023-05-31T13:00:23.974Z,33.82
2023-05-31T13:02:52.968Z,35.93
2023-05-31T13:05:21.027Z,33.35
2023-05-31T13:07:49.177Z,34.26
2023-05-31T13:10:17.055Z,31.76
2023-05-31T13:12:45.023Z,30.64
2023-05-31T13:18:19.306Z,31.27
2023-05-31T13:20:53.544Z,31.62
2023-05-31T13:23:22.749Z,31.77
2023-05-31T13:29:32.589Z,31.72
2023-05-31T13:32:04.076Z,33.32
2023-05-31T13:34:32.863Z,30.06
2023-05-31T13:37:05.083Z,28.56
2023-05-31T13:39:33.886Z,32.96
2023-05-31T13:42:02.945Z,28.58
2023-05-31T13:44:30.690Z,32.83
2023-05-31T13:46:58.572Z,32.67
2023-05-31T13:49:26.765Z,29.44
2023-05-31T13:51:54.555Z,28.37
2023-05-31T13:54:22.289Z,30.77
2023-05-31T13:56:50.344Z,32.00
2023-05-31T13:59:19.232Z,33.92
2023-05-31T14:01:47.719Z,34.83
2023-05-31T14:04:24.402Z,32.82
2023-05-31T14:06:54.623Z,33.10
2023-05-31T14:10:26.032Z,35.34
2023-05-31T14:13:00.779Z,29.82
2023-05-31T14:15:34.855Z,36.22
2023-05-31T14:18:04.890Z,33.25
2023-05-31T14:20:35.088Z,34.13
2023-05-31T14:26:24.587Z,32.60
2023-05-31T14:28:52.333Z,32.63
2023-05-31T14:31:21.070Z,35.13
2023-05-31T14:33:49.430Z,31.84
2023-05-31T14:36:17.753Z,33.84
2023-05-31T14:38:46.007Z,35.86
2023-05-31T14:41:14.206Z,33.70
2023-05-31T14:43:42.327Z,36.19
2023-05-31T14:46:10.979Z,33.12
2023-05-31T14:48:42.486Z,33.80
2023-05-31T14:51:10.607Z,34.52
2023-05-31T14:53:38.516Z,35.15
2023-05-31T14:56:17.558Z,35.54
2023-05-31T14:58:53.670Z,34.66
2023-05-31T15:01:24.042Z,35.44
2023-05-31T15:03:56.458Z,34.94
2023-05-31T15:06:28.616Z,35.06
2023-05-31T15:08:56.416Z,33.84
2023-05-31T15:11:24.166Z,35.83
2023-05-31T15:13:52.577Z,33.89
2023-05-31T15:16:22.828Z,33.36
2023-05-31T15:18:52.089Z,34.24
2023-05-31T15:24:14.891Z,37.72
2023-05-31T15:27:10.765Z,33.72
2023-05-31T15:29:40.137Z,33.86
2023-05-31T15:35:16.233Z,37.28
2023-05-31T15:37:47.985Z,36.29
2023-05-31T15:40:24.574Z,36.20
2023-05-31T15:42:54.519Z,35.83
2023-05-31T15:45:22.368Z,35.08
2023-05-31T15:47:50.138Z,36.45
2023-05-31T15:50:21.710Z,37.44
2023-05-31T15:52:49.813Z,37.93
2023-05-31T15:55:17.686Z,36.45
2023-05-31T15:57:46.157Z,37.71
2023-05-31T16:00:14.757Z,38.36
2023-05-31T16:02:42.966Z,39.20
2023-05-31T16:05:13.219Z,38.01
2023-05-31T16:07:41.371Z,38.48
2023-05-31T16:10:09.964Z,40.92
2023-05-31T16:12:38.008Z,40.82
2023-05-31T16:15:06.211Z,40.86
2023-05-31T16:17:34.531Z,40.24
2023-05-31T16:20:02.625Z,41.17
2023-05-31T16:22:30.590Z,41.35
2023-05-31T16:24:58.954Z,49.91
2023-05-31T16:27:26.739Z,53.01
2023-05-31T16:29:54.576Z,55.21
2023-05-31T16:32:23.014Z,55.62
2023-05-31T16:34:50.909Z,52.76
2023-05-31T16:37:20.593Z,55.51
2023-05-31T16:39:48.726Z,58.98
2023-05-31T16:42:16.587Z,58.23
2023-05-31T16:44:46.446Z,52.38
2023-05-31T16:47:14.639Z,55.97
2023-05-31T16:49:42.378Z,53.55
2023-05-31T16:52:12.079Z,53.53
2023-05-31T16:54:40.324Z,53.37
2023-05-31T16:57:08.086Z,49.90
2023-05-31T16:59:37.170Z,49.36
2023-05-31T17:02:05.512Z,50.50
2023-05-31T17:04:33.366Z,49.72
2023-05-31T17:07:01.574Z,51.56
2023-05-31T17:09:39.429Z,52.93
2023-05-31T17:12:08.092Z,54.49
2023-05-31T17:14:38.523Z,56.96
2023-05-31T17:17:06.532Z,57.24
2023-05-31T17:19:34.344Z,56.14
2023-05-31T17:22:02.751Z,59.78
2023-05-31T17:24:30.633Z,58.92
2023-05-31T17:27:03.648Z,61.85
2023-05-31T17:29:31.928Z,62.48
2023-05-31T17:31:59.659Z,65.00
2023-05-31T17:34:27.568Z,67.25
2023-05-31T17:36:55.782Z,63.46
2023-05-31T17:39:23.954Z,66.36
2023-05-31T17:41:51.735Z,65.50
2023-05-31T17:44:20.633Z,67.87
2023-05-31T17:46:48.382Z,67.69
2023-05-31T17:49:16.326Z,70.47
2023-05-31T17:51:44.517Z,60.34
2023-05-31T17:54:12.319Z,67.67
2023-05-31T17:56:41.809Z,65.10
2023-05-31T17:59:10.200Z,67.48
2023-05-31T18:01:41.408Z,66.97
2023-05-31T18:04:09.776Z,65.97
2023-05-31T18:06:37.745Z,68.59
2023-05-31T18:09:06.072Z,65.36
2023-05-31T18:11:34.307Z,72.12
2023-05-31T18:14:02.969Z,71.02
2023-05-31T18:16:31.975Z,69.19
2023-05-31T18:19:00.203Z,72.70
2023-05-31T18:21:28.039Z,73.98
2023-05-31T18:23:55.913Z,67.65
2023-05-31T18:26:24.264Z,68.76
2023-05-31T18:28:52.088Z,70.75
2023-05-31T18:31:19.951Z,71.08
2023-05-31T18:33:48.013Z,67.42
2023-05-31T18:36:15.943Z,68.40
2023-05-31T18:38:44.194Z,69.78
2023-05-31T18:41:12.514Z,69.50
2023-05-31T18:43:40.348Z,68.17
2023-05-31T18:46:08.157Z,71.77
2023-05-31T18:48:37.776Z,70.17
2023-05-31T18:51:06.853Z,69.55
2023-05-31T18:53:34.800Z,70.99
2023-05-31T18:56:02.920Z,71.33
2023-05-31T18:58:30.980Z,72.08
2023-05-31T19:00:59.028Z,73.96
2023-05-31T19:03:28.259Z,74.43
2023-05-31T19:05:56.432Z,77.32
2023-05-31T19:08:24.109Z,75.76
2023-05-31T19:10:52.260Z,76.41
2023-05-31T19:13:20.437Z,73.45
2023-05-31T19:15:51.072Z,72.84
2023-05-31T19:18:20.021Z,74.04
2023-05-31T19:20:49.574Z,72.92
2023-05-31T19:23:17.796Z,73.51
2023-05-31T19:25:46.075Z,79.67
2023-05-31T19:28:14.798Z,80.52
2023-05-31T19:30:43.725Z,81.92
2023-05-31T19:33:14.294Z,76.30
2023-05-31T19:35:42.144Z,75.80
2023-05-31T19:38:10.940Z,78.49
2023-05-31T19:40:39.126Z,80.92
2023-05-31T19:43:07.655Z,81.04
2023-05-31T19:45:36.198Z,77.94
2023-05-31T19:48:09.325Z,81.65
2023-05-31T19:50:37.916Z,86.45
2023-05-31T19:53:05.977Z,85.02
2023-05-31T19:55:33.929Z,87.60
2023-05-31T19:58:01.652Z,85.27
2023-05-31T20:00:29.765Z,82.49
2023-05-31T20:02:58.044Z,81.05
2023-05-31T20:05:25.904Z,83.09
2023-05-31T20:07:53.685Z,84.37
2023-05-31T20:10:21.939Z,86.23
2023-05-31T20:12:52.836Z,82.27
2023-05-31T20:15:21.318Z,83.28
2023-05-31T20:17:49.775Z,81.49
2023-05-31T20:20:17.552Z,86.55
2023-05-31T20:22:46.290Z,84.41
2023-05-31T20:25:14.352Z,84.51
2023-05-31T20:27:42.286Z,84.74
2023-05-31T20:30:12.098Z,89.12
2023-05-31T20:32:40.452Z,91.35
2023-05-31T20:35:08.558Z,89.45
2023-05-31T20:37:36.627Z,86.55
2023-05-31T20:40:04.487Z,85.81
2023-05-31T20:42:32.186Z,89.21
2023-05-31T20:45:00.409Z,88.43
2023-05-31T20:47:29.603Z,89.63
2023-05-31T20:49:57.448Z,87.11
2023-05-31T20:52:25.689Z,85.29
2023-05-31T20:54:53.488Z,86.67
2023-05-31T20:57:21.431Z,89.66
2023-05-31T20:59:51.195Z,90.46
2023-05-31T21:02:19.510Z,90.50
2023-05-31T21:04:47.861Z,88.28
2023-05-31T21:07:16.055Z,87.62
2023-05-31T21:09:44.444Z,84.22
2023-05-31T21:12:12.484Z,87.88
2023-05-31T21:14:40.652Z,87.35
2023-05-31T21:17:08.542Z,87.19
2023-05-31T21:22:21.982Z,89.53
2023-05-31T21:24:50.080Z,87.74
2023-05-31T21:27:17.801Z,88.60
2023-05-31T21:29:46.071Z,91.38
2023-05-31T21:32:21.144Z,89.50
2023-05-31T21:35:41.245Z,90.80
2023-05-31T21:38:12.711Z,88.76
2023-05-31T21:43:50.172Z,87.71
2023-05-31T21:46:42.580Z,88.22
2023-05-31T21:49:37.752Z,88.05
2023-05-31T21:52:17.123Z,85.64
2023-05-31T21:55:22.629Z,87.95
2023-05-31T21:58:26.776Z,88.96
2023-05-31T22:15:57.042Z,87.89
2023-05-31T22:20:04.975Z,90.58
2023-05-31T22:26:48.417Z,88.36
2023-05-31T22:58:49.559Z,86.71
2023-05-31T23:01:51.410Z,89.30
2023-05-31T23:05:11.278Z,88.32
2023-05-31T23:08:09.337Z,84.11
2023-05-31T23:18:53.273Z,86.36
2023-05-31T23:29:27.409Z,94.11
2023-05-31T23:32:47.353Z,85.66
2023-05-31T23:36:23.788Z,86.02
